Time;durP1;ratioP1;P1;durP2;ratioP2;P2;SDS_P1;SDS_P2;PMS_P1;PMS_P2;Temp;Humidity;BMP_temperature;BMP_pressure;BME280_temperature;BME280_humidity;BME280_pressure;Samples;Min_cycle;Max_cycle;Signal;HPM_P1;HPM_P2
2023/05/03 00:01:53;;;;;;;8.30;8.10;;;20.10;56.10;;;;;;5080362;28;20542;-59
2023/05/03 00:04:22;;;;;;;8.40;8.10;;;20.10;56.10;;;;;;5072647;28;20945;-58
2023/05/03 00:06:48;;;;;;;8.50;8.20;;;20.00;56.00;;;;;;5073051;28;20447;-58
2023/05/03 00:09:16;;;;;;;8.47;8.17;;;20.00;56.10;;;;;;5072845;28;20546;-56
2023/05/03 00:11:43;;;;;;;8.23;7.93;;;20.00;56.10;;;;;;5072700;28;20888;-55
2023/05/03 00:14:09;;;;;;;8.07;7.80;;;20.00;56.10;;;;;;5072896;28;21019;-56
2023/05/03 00:16:36;;;;;;;8.37;8.10;;;20.00;56.20;;;;;;5072844;28;20531;-58
2023/05/03 00:19:03;;;;;;;8.20;7.90;;;20.00;56.20;;;;;;5072396;28;20580;-55
2023/05/03 00:21:31;;;;;;;7.80;7.60;;;20.00;56.30;;;;;;5083777;28;20557;-57
2023/05/03 00:23:58;;;;;;;8.60;8.30;;;20.00;56.30;;;;;;5072750;28;20531;-57
2023/05/03 00:26:26;;;;;;;8.90;8.60;;;20.00;56.30;;;;;;5072658;28;20538;-55
2023/05/03 00:28:53;;;;;;;8.77;8.33;;;20.00;56.30;;;;;;5072990;28;20799;-55
2023/05/03 00:31:20;;;;;;;8.37;8.17;;;20.00;56.30;;;;;;5092851;28;20533;-55
2023/05/03 00:33:46;;;;;;;8.70;8.50;;;19.90;56.30;;;;;;5092721;28;20521;-54
2023/05/03 00:36:15;;;;;;;8.47;8.27;;;19.90;56.30;;;;;;5092638;28;20525;-54
2023/05/03 00:38:43;;;;;;;8.90;8.60;;;20.00;56.30;;;;;;5092457;28;20910;-56
2023/05/03 00:41:11;;;;;;;8.80;8.50;;;20.00;56.50;;;;;;5072478;28;20481;-54
2023/05/03 00:43:38;;;;;;;7.90;7.60;;;19.90;56.30;;;;;;5072243;28;20471;-52
2023/05/03 00:46:07;;;;;;;8.80;8.60;;;19.90;56.30;;;;;;5072452;28;20534;-56
2023/05/03 00:48:34;;;;;;;8.57;8.27;;;19.90;56.30;;;;;;5071968;28;20486;-57
2023/05/03 00:51:02;;;;;;;8.30;8.00;;;19.90;56.40;;;;;;5071080;28;20880;-56
2023/05/03 00:53:30;;;;;;;8.37;8.07;;;19.90;56.30;;;;;;5072007;28;20499;-58
2023/05/03 00:56:00;;;;;;;8.77;8.43;;;19.90;56.40;;;;;;5072192;28;20447;-55
2023/05/03 00:58:27;;;;;;;8.40;8.10;;;19.90;56.40;;;;;;5071942;28;20482;-54
2023/05/03 01:00:54;;;;;;;8.33;8.13;;;19.90;56.50;;;;;;5073118;28;20498;-55
2023/05/03 01:03:21;;;;;;;8.33;8.13;;;19.90;56.50;;;;;;5071902;28;20491;-57
2023/05/03 01:05:59;;;;;;;9.07;8.70;;;19.90;56.40;;;;;;5071899;28;20848;-57
2023/05/03 01:08:33;;;;;;;8.50;8.20;;;19.80;56.40;;;;;;5071699;28;20439;-53
2023/05/03 01:11:06;;;;;;;8.40;8.10;;;19.80;56.40;;;;;;5071627;28;20546;-57
2023/05/03 01:13:42;;;;;;;8.60;8.33;;;19.80;56.50;;;;;;5071812;28;20550;-56
2023/05/03 01:16:15;;;;;;;8.23;8.00;;;19.90;56.60;;;;;;5071388;28;20442;-53
2023/05/03 01:18:47;;;;;;;8.17;7.97;;;19.80;56.50;;;;;;5078718;28;20566;-51
2023/05/03 01:21:17;;;;;;;9.07;8.77;;;19.80;56.50;;;;;;5073897;28;20532;-55
2023/05/03 01:23:51;;;;;;;8.30;8.10;;;19.80;56.50;;;;;;5071718;28;20470;-55
2023/05/03 01:26:23;;;;;;;8.03;7.83;;;19.80;56.60;;;;;;5071851;28;20444;-53
2023/05/03 01:28:50;;;;;;;8.10;7.80;;;19.80;56.50;;;;;;5071244;28;20486;-56
2023/05/03 01:31:25;;;;;;;8.43;8.20;;;19.80;56.60;;;;;;5071689;28;20532;-57
2023/05/03 01:34:03;;;;;;;8.33;8.13;;;19.80;56.60;;;;;;5071714;28;20530;-55
2023/05/03 01:36:32;;;;;;;7.80;7.60;;;19.80;56.60;;;;;;5071508;28;20439;-57
2023/05/03 01:39:03;;;;;;;8.73;8.43;;;19.70;56.60;;;;;;5086290;28;20474;-55
2023/05/03 01:41:33;;;;;;;8.00;7.80;;;19.70;56.60;;;;;;5091688;28;20453;-56
2023/05/03 01:44:00;;;;;;;8.53;8.20;;;19.80;56.80;;;;;;5091852;28;20951;-54
2023/05/03 01:46:27;;;;;;;8.73;8.50;;;19.80;56.70;;;;;;5091568;28;20525;-54
2023/05/03 01:48:54;;;;;;;8.80;8.50;;;19.70;56.70;;;;;;5077012;28;20534;-54
2023/05/03 01:51:21;;;;;;;8.80;8.43;;;19.70;56.70;;;;;;5071450;28;20475;-54
2023/05/03 01:53:48;;;;;;;8.47;8.17;;;19.70;56.60;;;;;;5071285;28;20530;-51
2023/05/03 01:56:15;;;;;;;7.93;7.73;;;19.70;56.60;;;;;;5076921;28;20534;-56
2023/05/03 01:58:43;;;;;;;8.90;8.60;;;19.70;56.70;;;;;;5091294;28;21085;-56
2023/05/03 02:01:10;;;;;;;9.33;8.83;;;19.70;56.70;;;;;;5091552;28;20525;-55
2023/05/03 02:03:37;;;;;;;8.30;8.10;;;19.70;56.70;;;;;;5091376;28;20548;-57
2023/05/03 02:06:04;;;;;;;8.73;8.43;;;19.70;56.70;;;;;;5087470;28;21039;-54
2023/05/03 02:08:31;;;;;;;9.17;8.87;;;19.70;56.80;;;;;;5071139;28;20471;-57
2023/05/03 02:10:58;;;;;;;7.83;7.63;;;19.70;56.80;;;;;;5071146;28;20533;-55
2023/05/03 02:13:24;;;;;;;8.53;8.33;;;19.70;56.80;;;;;;5071125;28;20555;-56
2023/05/03 02:15:54;;;;;;;8.50;8.30;;;19.70;56.80;;;;;;5073028;28;20534;-55
2023/05/03 02:18:22;;;;;;;8.57;8.37;;;19.60;56.80;;;;;;5091245;28;20488;-55
2023/05/03 02:20:49;;;;;;;8.60;8.40;;;19.70;56.80;;;;;;5091432;28;20446;-52
2023/05/03 02:23:16;;;;;;;8.50;8.20;;;19.70;56.80;;;;;;5091402;28;20467;-53
2023/05/03 02:25:43;;;;;;;7.60;7.40;;;19.60;56.80;;;;;;5090472;28;20541;-56
2023/05/03 02:28:09;;;;;;;7.83;7.63;;;19.70;56.90;;;;;;5072146;28;20439;-56
2023/05/03 02:30:36;;;;;;;8.33;8.10;;;19.60;56.70;;;;;;5074786;28;20446;-57
2023/05/03 02:33:05;;;;;;;8.03;7.77;;;19.70;56.80;;;;;;5074621;28;20561;-54
2023/05/03 02:35:32;;;;;;;7.50;7.30;;;19.70;56.80;;;;;;5074294;28;20471;-54
2023/05/03 02:37:59;;;;;;;7.67;7.37;;;19.60;56.70;;;;;;5091279;28;20496;-55
2023/05/03 02:40:26;;;;;;;7.87;7.63;;;19.60;56.80;;;;;;5094875;28;20529;-58
2023/05/03 02:42:53;;;;;;;8.33;7.83;;;19.60;56.80;;;;;;5094881;28;20550;-53
2023/05/03 02:45:20;;;;;;;7.90;7.63;;;19.60;56.80;;;;;;5089944;28;20521;-54
2023/05/03 02:47:47;;;;;;;8.60;8.20;;;19.60;56.80;;;;;;5094598;28;20446;-57
2023/05/03 02:50:15;;;;;;;7.83;7.63;;;19.60;56.80;;;;;;5094887;28;20470;-53
2023/05/03 02:52:42;;;;;;;7.90;7.60;;;19.60;56.80;;;;;;5094792;28;20549;-57
2023/05/03 02:55:09;;;;;;;7.40;7.30;;;19.60;56.80;;;;;;5092858;28;20533;-57
2023/05/03 02:57:36;;;;;;;7.90;7.70;;;19.60;57.30;;;;;;5094438;28;20525;-55
2023/05/03 03:00:05;;;;;;;8.00;7.60;;;19.60;56.80;;;;;;5094630;28;20533;-55
2023/05/03 03:02:31;;;;;;;7.37;7.20;;;19.50;56.80;;;;;;5094563;28;20523;-54
2023/05/03 03:04:58;;;;;;;7.93;7.73;;;19.50;56.60;;;;;;5076322;28;20547;-55
2023/05/03 03:07:26;;;;;;;7.60;7.40;;;19.60;56.70;;;;;;5074226;28;20526;-54
2023/05/03 03:09:53;;;;;;;7.10;6.90;;;19.50;56.60;;;;;;5074165;28;20849;-56
2023/05/03 03:12:20;;;;;;;7.70;7.40;;;19.60;56.70;;;;;;5074160;28;20467;-56
2023/05/03 03:14:47;;;;;;;7.33;7.13;;;19.50;56.60;;;;;;5090033;28;20553;-55
2023/05/03 03:17:14;;;;;;;7.77;7.40;;;19.50;56.60;;;;;;5094181;28;20940;-58
2023/05/03 03:19:41;;;;;;;7.47;7.27;;;19.60;56.70;;;;;;5094042;28;20926;-55
2023/05/03 03:22:08;;;;;;;8.13;7.93;;;19.60;56.80;;;;;;5094208;28;21039;-58
2023/05/03 03:24:36;;;;;;;8.30;8.00;;;19.50;56.70;;;;;;5090142;28;20537;-54
2023/05/03 03:27:03;;;;;;;7.30;7.10;;;19.50;56.80;;;;;;5094118;28;20443;-57
2023/05/03 03:29:31;;;;;;;7.97;7.77;;;19.50;56.80;;;;;;5093888;28;20442;-56
2023/05/03 03:31:58;;;;;;;8.10;7.90;;;19.50;56.90;;;;;;5093805;28;20573;-57
2023/05/03 03:34:25;;;;;;;7.60;7.40;;;19.50;56.90;;;;;;5092292;28;20559;-54
2023/05/03 03:36:52;;;;;;;8.17;7.90;;;19.50;57.00;;;;;;5093931;28;20521;-54
2023/05/03 03:39:19;;;;;;;8.20;7.90;;;19.50;57.10;;;;;;5092965;28;20577;-54
2023/05/03 03:41:47;;;;;;;8.00;7.80;;;19.50;57.10;;;;;;5084598;28;20542;-55
2023/05/03 03:44:14;;;;;;;7.60;7.40;;;19.40;57.00;;;;;;5073574;28;20475;-56
2023/05/03 03:46:41;;;;;;;8.73;8.37;;;19.50;57.10;;;;;;5073509;28;20535;-55
2023/05/03 03:49:08;;;;;;;7.63;7.43;;;19.50;57.20;;;;;;5073308;28;20526;-55
2023/05/03 03:51:34;;;;;;;8.63;8.43;;;19.50;57.20;;;;;;5073102;28;20853;-54
2023/05/03 03:54:01;;;;;;;8.53;8.23;;;19.50;57.20;;;;;;5073277;28;20509;-57
2023/05/03 03:56:28;;;;;;;8.83;8.63;;;19.40;57.20;;;;;;5073410;28;20526;-52
2023/05/03 03:58:56;;;;;;;8.70;8.40;;;19.40;57.20;;;;;;5072894;28;20515;-54
2023/05/03 04:01:23;;;;;;;8.30;8.10;;;19.40;57.20;;;;;;5092286;28;20522;-54
2023/05/03 04:03:50;;;;;;;7.60;7.40;;;19.40;57.20;;;;;;5093485;28;20617;-56
2023/05/03 04:06:17;;;;;;;7.73;7.53;;;19.40;57.20;;;;;;5093275;28;20877;-55
2023/05/03 04:08:44;;;;;;;8.10;7.90;;;19.40;57.20;;;;;;5093128;28;20473;-54
2023/05/03 04:11:12;;;;;;;8.07;7.87;;;19.40;57.20;;;;;;5075501;28;20490;-57
2023/05/03 04:13:39;;;;;;;8.00;7.80;;;19.40;57.30;;;;;;5072890;28;20462;-55
2023/05/03 04:16:07;;;;;;;9.40;9.00;;;19.40;57.30;;;;;;5072964;28;20538;-57
2023/05/03 04:18:34;;;;;;;7.97;7.77;;;19.40;57.20;;;;;;5072552;28;20571;-56
2023/05/03 04:21:01;;;;;;;7.70;7.50;;;19.40;57.20;;;;;;5073954;28;20455;-54
2023/05/03 04:23:28;;;;;;;8.17;7.90;;;19.40;57.20;;;;;;5072651;28;20885;-55
2023/05/03 04:25:55;;;;;;;8.17;7.87;;;19.40;57.00;;;;;;5072668;28;20447;-56
2023/05/03 04:28:24;;;;;;;8.00;7.77;;;19.40;56.70;;;;;;5072393;28;20826;-56
2023/05/03 04:30:52;;;;;;;8.20;8.00;;;19.40;56.60;;;;;;5073348;28;20879;-56
2023/05/03 04:33:20;;;;;;;9.33;8.80;;;19.40;56.70;;;;;;5072532;28;20502;-54
2023/05/03 04:35:50;;;;;;;12.57;11.23;;;19.40;57.80;;;;;;5072794;28;20455;-56
2023/05/03 04:38:18;;;;;;;10.20;9.40;;;19.40;59.00;;;;;;5072372;28;20435;-52
2023/05/03 04:40:45;;;;;;;12.00;11.00;;;19.50;62.30;;;;;;5085387;28;20947;-56
2023/05/03 04:43:12;;;;;;;10.17;9.47;;;19.50;65.00;;;;;;5088678;28;20462;-58
2023/05/03 04:45:39;;;;;;;10.00;9.40;;;19.50;64.90;;;;;;5091926;28;20446;-58
2023/05/03 04:48:06;;;;;;;10.97;9.90;;;19.50;64.70;;;;;;5092578;28;20442;-59
2023/05/03 04:50:35;;;;;;;9.90;9.17;;;19.50;64.20;;;;;;5092753;28;20792;-58
2023/05/03 04:53:01;;;;;;;10.47;9.33;;;19.50;63.50;;;;;;5092444;28;20544;-58
2023/05/03 04:55:28;;;;;;;10.50;9.70;;;19.50;63.00;;;;;;5092351;28;20477;-59
2023/05/03 04:57:55;;;;;;;11.63;10.60;;;19.50;62.90;;;;;;5092386;28;20507;-57
2023/05/03 05:00:23;;;;;;;9.63;9.03;;;19.50;62.40;;;;;;5092576;28;21070;-59
2023/05/03 05:02:51;;;;;;;10.60;9.93;;;19.50;62.20;;;;;;5092518;28;20549;-59
2023/05/03 05:05:18;;;;;;;11.43;10.43;;;19.50;61.90;;;;;;5092245;28;20541;-57
2023/05/03 05:07:46;;;;;;;11.67;9.20;;;19.50;61.60;;;;;;5092287;28;20973;-57
2023/05/03 05:10:13;;;;;;;9.73;9.10;;;19.50;61.40;;;;;;5092357;28;20521;-58
2023/05/03 05:12:40;;;;;;;9.73;9.33;;;19.50;61.10;;;;;;5096189;28;20827;-60
2023/05/03 05:15:08;;;;;;;10.30;9.67;;;19.50;60.90;;;;;;5097698;28;20492;-59
2023/05/03 05:17:35;;;;;;;9.80;9.27;;;19.50;60.70;;;;;;5097551;28;20438;-60
2023/05/03 05:20:05;;;;;;;10.03;9.60;;;19.50;60.50;;;;;;5098221;28;20514;-60
2023/05/03 05:22:33;;;;;;;9.33;8.93;;;19.50;60.40;;;;;;5098635;28;20462;-60
2023/05/03 05:25:02;;;;;;;8.57;8.17;;;19.50;60.20;;;;;;5099113;28;20823;-60
2023/05/03 05:27:29;;;;;;;8.43;8.10;;;19.50;59.90;;;;;;5095916;28;20477;-59
2023/05/03 05:29:56;;;;;;;9.13;8.73;;;19.50;59.80;;;;;;5092118;28;20975;-60
2023/05/03 05:32:23;;;;;;;10.07;8.73;;;19.50;59.70;;;;;;5129573;22;20573;-58
2023/05/03 05:34:54;;;;;;;9.97;9.47;;;19.50;59.60;;;;;;5073054;28;20514;-57
2023/05/03 05:37:21;;;;;;;9.07;8.57;;;19.50;59.60;;;;;;5073588;28;21019;-58
2023/05/03 05:39:48;;;;;;;9.53;8.83;;;19.50;59.50;;;;;;5073381;28;20498;-58
2023/05/03 05:42:16;;;;;;;9.03;8.53;;;19.50;59.40;;;;;;5073407;28;20558;-58
2023/05/03 05:44:43;;;;;;;9.80;8.90;;;19.50;59.30;;;;;;5073607;28;20874;-58
2023/05/03 05:47:10;;;;;;;8.20;7.90;;;19.50;59.20;;;;;;5073672;28;20482;-57
2023/05/03 05:49:37;;;;;;;8.50;8.20;;;19.50;59.20;;;;;;5073625;28;20527;-58
2023/05/03 05:52:05;;;;;;;9.00;8.40;;;19.50;59.10;;;;;;5073281;28;20883;-57
2023/05/03 05:54:31;;;;;;;8.70;8.40;;;19.50;59.10;;;;;;5072914;28;20471;-57
2023/05/03 05:56:58;;;;;;;8.63;8.07;;;19.50;59.00;;;;;;5072936;28;20502;-58
2023/05/03 05:59:28;;;;;;;9.50;8.80;;;19.50;58.90;;;;;;5073384;28;21083;-59
2023/05/03 06:01:56;;;;;;;9.70;9.10;;;19.50;58.90;;;;;;5073106;28;20817;-59
2023/05/03 06:04:22;;;;;;;9.57;8.77;;;19.50;58.80;;;;;;5076693;28;20439;-59
2023/05/03 06:06:49;;;;;;;8.50;8.10;;;19.50;58.70;;;;;;5077520;28;20474;-57
2023/05/03 06:09:17;;;;;;;9.97;9.33;;;19.50;58.60;;;;;;5077193;28;20471;-58
2023/05/03 06:11:43;;;;;;;8.53;8.13;;;19.50;58.60;;;;;;5077062;28;20453;-57
2023/05/03 06:14:11;;;;;;;9.27;8.70;;;19.40;58.50;;;;;;5077095;28;20483;-57
2023/05/03 06:16:39;;;;;;;8.87;8.57;;;19.50;58.50;;;;;;5076953;28;20449;-57
2023/05/03 06:19:06;;;;;;;9.93;9.23;;;19.50;58.50;;;;;;5076858;28;20481;-59
2023/05/03 06:21:33;;;;;;;8.93;8.63;;;19.40;58.40;;;;;;5077054;28;20478;-59
2023/05/03 06:24:00;;;;;;;9.33;8.83;;;19.40;58.30;;;;;;5076516;28;20911;-60
2023/05/03 06:26:27;;;;;;;8.87;8.20;;;19.50;58.30;;;;;;5076605;28;20873;-57
2023/05/03 06:28:54;;;;;;;8.53;8.23;;;19.50;58.30;;;;;;5076610;28;20501;-60
2023/05/03 06:31:20;;;;;;;9.33;8.73;;;19.50;58.20;;;;;;5077468;28;20475;-58
2023/05/03 06:33:49;;;;;;;8.60;8.10;;;19.50;58.20;;;;;;5077318;28;20482;-58
2023/05/03 06:36:16;;;;;;;8.57;8.17;;;19.50;58.20;;;;;;5077290;28;20475;-57
2023/05/03 06:38:43;;;;;;;9.03;8.73;;;19.50;58.20;;;;;;5077186;28;20463;-58
2023/05/03 06:41:10;;;;;;;8.80;8.40;;;19.40;58.10;;;;;;5077280;28;20570;-60
2023/05/03 06:43:37;;;;;;;8.53;8.13;;;19.50;58.10;;;;;;5076780;28;20494;-58
2023/05/03 06:46:03;;;;;;;7.97;7.67;;;19.50;58.00;;;;;;5077090;28;20479;-59
2023/05/03 06:48:30;;;;;;;8.77;8.00;;;19.40;57.90;;;;;;5076259;28;20474;-56
2023/05/03 06:50:58;;;;;;;9.13;8.73;;;19.40;57.90;;;;;;5075498;28;20530;-59
2023/05/03 06:53:25;;;;;;;8.60;8.30;;;19.50;57.90;;;;;;5075748;28;20470;-58
2023/05/03 06:55:52;;;;;;;8.30;8.00;;;19.50;57.90;;;;;;5075939;28;21007;-58
2023/05/03 06:58:19;;;;;;;8.60;8.20;;;19.40;57.80;;;;;;5076179;28;20486;-58
2023/05/03 07:00:46;;;;;;;8.40;8.03;;;19.40;57.80;;;;;;5075794;28;21026;-56
2023/05/03 07:03:13;;;;;;;8.00;7.70;;;19.50;57.80;;;;;;5075364;28;20833;-59
2023/05/03 07:05:40;;;;;;;8.90;8.40;;;19.50;57.80;;;;;;5075375;28;20546;-57
2023/05/03 07:08:08;;;;;;;9.27;8.87;;;19.50;57.80;;;;;;5074939;28;20474;-58
2023/05/03 07:10:36;;;;;;;8.83;8.53;;;19.50;57.80;;;;;;5075879;28;20470;-57
2023/05/03 07:13:02;;;;;;;8.40;8.10;;;19.50;57.70;;;;;;5076159;28;20835;-58
2023/05/03 07:15:31;;;;;;;8.80;8.50;;;19.50;57.70;;;;;;5075114;28;20641;-58
2023/05/03 07:17:58;;;;;;;8.60;8.40;;;19.50;57.70;;;;;;5076203;28;20482;-59
2023/05/03 07:20:25;;;;;;;9.00;8.60;;;19.50;57.60;;;;;;5075441;28;21026;-58
2023/05/03 07:22:52;;;;;;;9.10;8.77;;;19.50;57.60;;;;;;5075727;28;20474;-56
2023/05/03 07:25:20;;;;;;;8.27;8.00;;;19.50;57.60;;;;;;5075265;28;20515;-59
2023/05/03 07:27:47;;;;;;;8.60;8.33;;;19.50;57.50;;;;;;5076004;28;20483;-57
2023/05/03 07:30:14;;;;;;;8.10;7.90;;;19.50;57.50;;;;;;5076409;28;20465;-59
2023/05/03 07:32:41;;;;;;;8.70;8.20;;;19.50;58.00;;;;;;5076018;28;20547;-57
2023/05/03 07:35:09;;;;;;;8.40;8.20;;;19.50;57.50;;;;;;5076023;28;20470;-57
2023/05/03 07:37:37;;;;;;;8.40;8.07;;;19.50;57.40;;;;;;5075448;28;20470;-59
2023/05/03 07:40:06;;;;;;;7.57;7.37;;;19.40;57.30;;;;;;5075114;28;20813;-58
2023/05/03 07:42:34;;;;;;;7.80;7.60;;;19.50;57.40;;;;;;5075508;28;20467;-58
2023/05/03 07:45:01;;;;;;;8.60;8.40;;;19.50;57.40;;;;;;5074579;28;20454;-58
2023/05/03 07:47:28;;;;;;;7.77;7.50;;;19.50;57.40;;;;;;5074279;28;20639;-57
2023/05/03 07:49:55;;;;;;;7.97;7.70;;;19.50;57.30;;;;;;5074469;28;20471;-58
2023/05/03 07:52:22;;;;;;;8.53;8.13;;;19.50;57.30;;;;;;5074827;28;20495;-60
2023/05/03 07:54:50;;;;;;;7.70;7.40;;;19.50;57.30;;;;;;5075326;28;20483;-57
2023/05/03 07:57:17;;;;;;;7.93;7.60;;;19.50;57.30;;;;;;5074479;28;20538;-58
2023/05/03 07:59:45;;;;;;;7.60;7.30;;;19.50;57.30;;;;;;5073896;28;20511;-59
2023/05/03 08:02:12;;;;;;;8.60;8.30;;;19.50;57.30;;;;;;5074227;28;20894;-59
2023/05/03 08:04:39;;;;;;;7.50;7.30;;;19.50;57.20;;;;;;5074276;28;20494;-58
2023/05/03 08:07:06;;;;;;;7.87;7.73;;;19.50;57.20;;;;;;5075638;28;20850;-58
2023/05/03 08:09:33;;;;;;;8.40;8.13;;;19.50;57.20;;;;;;5075203;28;20499;-58
2023/05/03 08:12:01;;;;;;;8.37;8.10;;;19.50;57.10;;;;;;5075272;28;20500;-58
2023/05/03 08:14:28;;;;;;;7.93;7.53;;;19.50;57.20;;;;;;5075165;28;20451;-60
2023/05/03 08:16:56;;;;;;;8.23;7.93;;;19.50;57.10;;;;;;5075662;28;20486;-58
2023/05/03 08:19:23;;;;;;;8.80;8.30;;;19.50;57.10;;;;;;5075116;28;20530;-59
2023/05/03 08:21:53;;;;;;;7.97;7.67;;;19.50;57.10;;;;;;5074952;28;20518;-57
2023/05/03 08:24:20;;;;;;;8.23;7.87;;;19.50;57.10;;;;;;5075137;28;20798;-60
2023/05/03 08:26:47;;;;;;;7.60;7.40;;;19.50;57.00;;;;;;5074208;28;20843;-58
2023/05/03 08:29:14;;;;;;;7.80;7.60;;;19.50;57.50;;;;;;5075104;28;20441;-59
2023/05/03 08:31:42;;;;;;;8.80;8.40;;;19.50;57.00;;;;;;5075110;28;20505;-58
2023/05/03 08:34:10;;;;;;;7.53;7.23;;;19.50;56.90;;;;;;5074610;28;20822;-57
2023/05/03 08:36:38;;;;;;;7.90;7.70;;;19.50;56.90;;;;;;5074994;28;20572;-58
2023/05/03 08:39:05;;;;;;;7.80;7.60;;;19.50;56.90;;;;;;5074899;28;20504;-58
2023/05/03 08:41:33;;;;;;;8.10;7.90;;;19.50;56.90;;;;;;5074882;28;20569;-57
2023/05/03 08:44:02;;;;;;;7.60;7.40;;;19.50;56.90;;;;;;5074342;28;20518;-58
2023/05/03 08:46:29;;;;;;;8.60;8.20;;;19.50;56.80;;;;;;5074528;28;20443;-56
2023/05/03 08:48:57;;;;;;;7.70;7.40;;;19.50;56.80;;;;;;5074295;28;20500;-59
2023/05/03 08:51:26;;;;;;;7.87;7.67;;;19.50;56.80;;;;;;5074527;28;20471;-58
2023/05/03 08:53:53;;;;;;;7.73;7.53;;;19.50;56.80;;;;;;5074220;28;20471;-57
2023/05/03 08:56:26;;;;;;;7.60;7.40;;;19.50;56.80;;;;;;5073378;28;20482;-58
2023/05/03 08:58:53;;;;;;;7.50;7.30;;;19.50;56.80;;;;;;5073465;28;20538;-58
2023/05/03 09:01:20;;;;;;;7.70;7.50;;;19.50;56.70;;;;;;5074628;28;21117;-60
2023/05/03 09:03:50;;;;;;;7.57;7.37;;;19.50;56.70;;;;;;5074229;28;20491;-58
2023/05/03 09:06:21;;;;;;;7.27;7.07;;;19.50;56.70;;;;;;5073025;28;20454;-58
2023/05/03 09:08:49;;;;;;;7.70;7.50;;;19.50;56.60;;;;;;5072624;28;20539;-59
2023/05/03 09:11:24;;;;;;;7.30;7.00;;;19.50;56.60;;;;;;5072970;28;20473;-57
2023/05/03 09:13:52;;;;;;;7.37;7.17;;;19.50;56.60;;;;;;5073648;28;20561;-57
2023/05/03 09:16:28;;;;;;;7.37;7.20;;;19.50;56.60;;;;;;5073541;28;20455;-59
2023/05/03 09:18:59;;;;;;;7.33;6.80;;;19.50;56.60;;;;;;5073511;28;20530;-57
2023/05/03 09:21:27;;;;;;;7.77;7.43;;;19.50;56.50;;;;;;5072293;28;20571;-58
2023/05/03 09:23:55;;;;;;;7.43;7.23;;;19.60;56.60;;;;;;5073186;28;20495;-57
2023/05/03 09:26:32;;;;;;;7.50;7.20;;;19.50;56.40;;;;;;5073234;28;20475;-58
2023/05/03 09:29:00;;;;;;;6.77;6.67;;;19.50;56.40;;;;;;5073067;28;20480;-57
2023/05/03 09:31:28;;;;;;;7.60;7.10;;;19.50;56.40;;;;;;5073591;28;20443;-58
2023/05/03 09:33:55;;;;;;;7.53;7.23;;;19.50;56.40;;;;;;5073598;28;20521;-57
2023/05/03 09:36:22;;;;;;;8.20;7.90;;;19.50;56.40;;;;;;5073698;28;20467;-58
2023/05/03 09:38:50;;;;;;;8.37;7.87;;;19.60;56.40;;;;;;5072760;28;20878;-59
2023/05/03 09:41:27;;;;;;;7.93;7.70;;;19.50;56.30;;;;;;5073677;28;20561;-58
2023/05/03 09:43:55;;;;;;;7.30;7.10;;;19.60;56.40;;;;;;5073590;28;20998;-57
2023/05/03 09:46:24;;;;;;;8.23;7.73;;;19.50;56.30;;;;;;5073537;28;20486;-58
2023/05/03 09:48:54;;;;;;;8.17;7.87;;;19.50;56.20;;;;;;5073294;28;20451;-59
2023/05/03 09:51:23;;;;;;;7.20;7.10;;;19.60;56.30;;;;;;5073752;28;20500;-57
2023/05/03 09:53:50;;;;;;;8.30;7.90;;;19.60;56.30;;;;;;5073317;28;20494;-58
2023/05/03 09:56:25;;;;;;;8.20;7.90;;;19.60;56.30;;;;;;5073486;28;20974;-58
2023/05/03 09:58:52;;;;;;;7.70;7.60;;;19.60;56.30;;;;;;5073053;28;20446;-57
2023/05/03 10:01:21;;;;;;;7.97;7.77;;;19.60;56.30;;;;;;5073277;28;20910;-57
2023/05/03 10:03:49;;;;;;;7.77;7.57;;;19.50;56.20;;;;;;5072354;28;20471;-59
2023/05/03 10:06:23;;;;;;;7.50;7.30;;;19.50;56.20;;;;;;5071824;28;20443;-59
2023/05/03 10:08:55;;;;;;;7.60;7.40;;;19.50;56.20;;;;;;5071518;28;20478;-58
2023/05/03 10:11:27;;;;;;;8.10;7.90;;;19.60;56.30;;;;;;5072566;28;20474;-59
2023/05/03 10:13:54;;;;;;;7.13;7.03;;;19.60;56.30;;;;;;5072317;28;20451;-57
2023/05/03 10:16:25;;;;;;;7.40;7.20;;;19.60;56.30;;;;;;5072716;28;20924;-58
2023/05/03 10:18:58;;;;;;;7.30;7.20;;;19.50;56.30;;;;;;5072129;28;20486;-57
2023/05/03 10:21:38;;;;;;;8.00;7.80;;;19.60;56.40;;;;;;5071782;28;20562;-57
2023/05/03 10:24:12;;;;;;;8.17;7.87;;;19.60;56.40;;;;;;5073009;28;20891;-59
2023/05/03 10:26:42;;;;;;;7.60;7.37;;;19.60;56.40;;;;;;5072849;28;21009;-58
2023/05/03 10:29:48;;;;;;;7.87;7.67;;;19.60;56.30;;;;;;5072693;28;20462;-58
2023/05/03 10:32:35;;;;;;;7.67;7.47;;;19.60;56.30;;;;;;5072484;28;20820;-57
2023/05/03 10:35:05;;;;;;;7.90;7.60;;;19.60;56.30;;;;;;5072931;28;20450;-58
2023/05/03 10:37:34;;;;;;;7.50;7.30;;;19.60;56.30;;;;;;5072304;28;20514;-57
2023/05/03 10:40:10;;;;;;;8.30;8.00;;;19.60;56.40;;;;;;5072472;28;20443;-59
2023/05/03 10:42:42;;;;;;;7.53;7.33;;;19.60;56.30;;;;;;5072268;28;20888;-57
2023/05/03 10:45:19;;;;;;;8.63;8.13;;;19.60;56.30;;;;;;5071894;28;20808;-58
2023/05/03 10:48:19;;;;;;;8.33;8.03;;;19.60;56.30;;;;;;5071781;28;20520;-57
2023/05/03 10:50:46;;;;;;;7.60;7.50;;;19.60;56.30;;;;;;5076006;28;20474;-58
2023/05/03 10:53:39;;;;;;;8.23;7.93;;;19.60;56.30;;;;;;5076198;28;20494;-58
2023/05/03 10:56:08;;;;;;;8.03;7.83;;;19.60;56.20;;;;;;5076040;28;20439;-58
2023/05/03 10:58:39;;;;;;;8.33;8.00;;;19.60;56.30;;;;;;5075363;28;20452;-59
2023/05/03 11:01:09;;;;;;;7.43;7.30;;;19.60;56.30;;;;;;5075034;28;20514;-58
2023/05/03 11:04:00;;;;;;;7.70;7.50;;;19.60;56.30;;;;;;5074943;28;20543;-59
2023/05/03 11:06:30;;;;;;;7.30;7.00;;;19.60;56.30;;;;;;5074752;28;20443;-59
2023/05/03 11:08:57;;;;;;;7.33;7.13;;;19.60;56.20;;;;;;5074953;28;20447;-59
2023/05/03 11:11:24;;;;;;;7.40;7.20;;;19.60;56.20;;;;;;5074846;28;20501;-59
2023/05/03 11:13:53;;;;;;;7.33;7.13;;;19.60;56.20;;;;;;5074979;28;20800;-59
2023/05/03 11:16:20;;;;;;;7.83;7.63;;;19.60;56.20;;;;;;5075902;28;20534;-56
2023/05/03 11:18:48;;;;;;;7.87;7.67;;;19.60;56.20;;;;;;5075474;28;20548;-59
2023/05/03 11:21:15;;;;;;;7.80;7.60;;;19.70;56.30;;;;;;5076499;28;20490;-58
2023/05/03 11:23:43;;;;;;;8.13;7.83;;;19.70;56.20;;;;;;5075948;28;20805;-56
2023/05/03 11:26:10;;;;;;;8.40;8.20;;;19.70;56.20;;;;;;5076585;28;20538;-57
2023/05/03 11:28:38;;;;;;;7.10;7.00;;;19.70;56.20;;;;;;5076264;28;20493;-55
2023/05/03 11:31:06;;;;;;;7.33;7.23;;;19.70;56.20;;;;;;5076065;28;20478;-56
2023/05/03 11:33:34;;;;;;;8.20;8.00;;;19.70;56.20;;;;;;5076374;28;20509;-59
2023/05/03 11:36:03;;;;;;;7.27;7.17;;;19.70;56.20;;;;;;5076385;28;20440;-58
2023/05/03 11:38:31;;;;;;;7.50;7.30;;;19.70;56.20;;;;;;5076423;28;20443;-58
2023/05/03 11:40:58;;;;;;;7.60;7.50;;;19.70;56.20;;;;;;5076367;28;20475;-59
2023/05/03 11:43:25;;;;;;;7.20;7.10;;;19.70;56.10;;;;;;5076019;28;20506;-55
2023/05/03 11:45:54;;;;;;;7.10;7.00;;;19.70;56.10;;;;;;5076646;28;20804;-56
2023/05/03 11:48:24;;;;;;;6.90;6.80;;;19.70;56.10;;;;;;5075878;28;20481;-55
2023/05/03 11:50:54;;;;;;;7.73;7.53;;;19.70;56.00;;;;;;5076115;28;20431;-59
2023/05/03 11:53:22;;;;;;;7.53;7.33;;;19.80;56.20;;;;;;5074041;28;20471;-59
2023/05/03 11:55:52;;;;;;;7.10;7.00;;;19.80;56.10;;;;;;5074153;28;20536;-59
2023/05/03 11:58:20;;;;;;;7.40;7.20;;;19.80;56.10;;;;;;5074348;28;20455;-57
2023/05/03 12:00:48;;;;;;;7.43;7.30;;;19.80;56.10;;;;;;5074190;28;20442;-58
2023/05/03 12:03:19;;;;;;;8.23;7.93;;;19.80;56.10;;;;;;5074659;28;20495;-59
2023/05/03 12:05:48;;;;;;;7.00;6.90;;;19.80;56.10;;;;;;5074965;28;20513;-58
2023/05/03 12:08:17;;;;;;;7.47;7.27;;;19.80;56.00;;;;;;5074549;28;20471;-57
2023/05/03 12:10:44;;;;;;;6.93;6.70;;;19.80;56.00;;;;;;5075148;28;20447;-58
2023/05/03 12:13:11;;;;;;;7.00;6.90;;;19.80;56.00;;;;;;5074302;28;20502;-58
2023/05/03 12:15:39;;;;;;;6.80;6.60;;;19.80;56.00;;;;;;5074625;28;20482;-54
2023/05/03 12:18:09;;;;;;;7.27;7.13;;;19.80;56.00;;;;;;5075090;28;21023;-58
2023/05/03 12:20:37;;;;;;;7.20;7.00;;;19.80;56.00;;;;;;5074431;28;20455;-59
2023/05/03 12:23:07;;;;;;;7.20;7.00;;;19.80;56.00;;;;;;5075198;28;20467;-58
2023/05/03 12:25:36;;;;;;;7.33;7.13;;;19.80;56.00;;;;;;5074758;28;20439;-58
2023/05/03 12:28:05;;;;;;;7.83;7.63;;;19.90;56.00;;;;;;5074798;28;20488;-58
2023/05/03 12:30:32;;;;;;;6.97;6.77;;;19.90;56.10;;;;;;5074937;28;20501;-58
2023/05/03 12:33:00;;;;;;;7.33;7.20;;;19.90;56.00;;;;;;5074630;28;21004;-59
2023/05/03 12:35:26;;;;;;;7.10;6.90;;;19.90;56.00;;;;;;5074694;28;20478;-55
2023/05/03 12:37:53;;;;;;;7.83;7.63;;;19.90;56.00;;;;;;5074546;28;20858;-56
2023/05/03 12:40:26;;;;;;;7.77;7.57;;;19.90;55.90;;;;;;5074973;28;20486;-57
2023/05/03 12:42:54;;;;;;;7.40;7.20;;;20.00;56.20;;;;;;5074416;28;20487;-58
2023/05/03 12:45:22;;;;;;;7.47;7.20;;;20.00;56.10;;;;;;5075266;28;20517;-58
2023/05/03 12:47:48;;;;;;;7.00;6.90;;;20.00;56.00;;;;;;5075430;28;20487;-58
2023/05/03 12:50:15;;;;;;;7.20;7.10;;;20.00;56.00;;;;;;5076097;28;20952;-58
2023/05/03 12:52:42;;;;;;;7.50;7.30;;;20.00;56.00;;;;;;5075180;28;20877;-58